sensor_id;sensor_type;location;lat;lon;timestamp;temperature;humidity
7476;DHT22;3779;49.216;8.650;2022-08-02T00:02:16;28.00;51.80
7476;DHT22;3779;49.216;8.650;2022-08-02T00:05:03;28.00;51.80
7476;DHT22;3779;49.216;8.650;2022-08-02T00:07:49;28.00;52.40
7476;DHT22;3779;49.216;8.650;2022-08-02T00:10:35;28.00;51.80
7476;DHT22;3779;49.216;8.650;2022-08-02T00:13:21;28.00;51.80
7476;DHT22;3779;49.216;8.650;2022-08-02T00:16:06;28.00;51.80
7476;DHT22;3779;49.216;8.650;2022-08-02T00:18:52;28.00;51.80
7476;DHT22;3779;49.216;8.650;2022-08-02T00:21:38;28.00;51.80
7476;DHT22;3779;49.216;8.650;2022-08-02T00:24:24;28.00;51.70
7476;DHT22;3779;49.216;8.650;2022-08-02T00:27:10;28.00;51.70
7476;DHT22;3779;49.216;8.650;2022-08-02T00:29:56;28.00;51.70
7476;DHT22;3779;49.216;8.650;2022-08-02T00:32:41;28.00;51.60
7476;DHT22;3779;49.216;8.650;2022-08-02T00:35:27;28.00;51.50
7476;DHT22;3779;49.216;8.650;2022-08-02T00:38:14;28.00;51.50
7476;DHT22;3779;49.216;8.650;2022-08-02T00:40:59;28.00;51.40
7476;DHT22;3779;49.216;8.650;2022-08-02T00:43:46;28.00;51.50
7476;DHT22;3779;49.216;8.650;2022-08-02T00:46:33;28.00;51.60
7476;DHT22;3779;49.216;8.650;2022-08-02T00:49:18;27.90;51.50
7476;DHT22;3779;49.216;8.650;2022-08-02T00:52:04;27.90;51.40
7476;DHT22;3779;49.216;8.650;2022-08-02T00:54:50;28.00;51.50
7476;DHT22;3779;49.216;8.650;2022-08-02T00:57:36;27.90;51.40
7476;DHT22;3779;49.216;8.650;2022-08-02T01:00:22;28.00;51.40
7476;DHT22;3779;49.216;8.650;2022-08-02T01:03:08;27.90;51.40
7476;DHT22;3779;49.216;8.650;2022-08-02T01:05:54;28.00;51.40
7476;DHT22;3779;49.216;8.650;2022-08-02T01:08:40;28.00;51.20
7476;DHT22;3779;49.216;8.650;2022-08-02T01:11:27;27.90;51.30
7476;DHT22;3779;49.216;8.650;2022-08-02T01:14:14;27.90;51.30
7476;DHT22;3779;49.216;8.650;2022-08-02T01:17:11;27.90;51.40
7476;DHT22;3779;49.216;8.650;2022-08-02T01:26:46;27.90;51.30
7476;DHT22;3779;49.216;8.650;2022-08-02T01:29:38;27.90;51.50
7476;DHT22;3779;49.216;8.650;2022-08-02T01:32:34;27.90;51.60
7476;DHT22;3779;49.216;8.650;2022-08-02T01:35:27;27.90;51.70
7476;DHT22;3779;49.216;8.650;2022-08-02T01:38:24;27.90;51.70
7476;DHT22;3779;49.216;8.650;2022-08-02T01:41:15;27.90;51.80
7476;DHT22;3779;49.216;8.650;2022-08-02T01:44:04;27.90;51.80
7476;DHT22;3779;49.216;8.650;2022-08-02T01:46:51;27.90;51.80
7476;DHT22;3779;49.216;8.650;2022-08-02T01:49:38;27.90;51.80
7476;DHT22;3779;49.216;8.650;2022-08-02T01:52:29;27.90;51.70
7476;DHT22;3779;49.216;8.650;2022-08-02T01:55:43;27.90;51.70
7476;DHT22;3779;49.216;8.650;2022-08-02T01:58:33;27.90;51.80
7476;DHT22;3779;49.216;8.650;2022-08-02T02:01:21;28.00;51.70
7476;DHT22;3779;49.216;8.650;2022-08-02T02:04:08;28.00;51.70
7476;DHT22;3779;49.216;8.650;2022-08-02T02:06:55;27.90;51.70
7476;DHT22;3779;49.216;8.650;2022-08-02T02:09:42;27.90;51.40
7476;DHT22;3779;49.216;8.650;2022-08-02T02:12:31;27.90;51.50
7476;DHT22;3779;49.216;8.650;2022-08-02T02:15:18;27.90;51.60
7476;DHT22;3779;49.216;8.650;2022-08-02T02:18:05;27.90;51.50
7476;DHT22;3779;49.216;8.650;2022-08-02T02:20:53;27.90;51.50
7476;DHT22;3779;49.216;8.650;2022-08-02T02:23:39;27.90;51.50
7476;DHT22;3779;49.216;8.650;2022-08-02T02:26:25;27.90;51.40
7476;DHT22;3779;49.216;8.650;2022-08-02T02:29:12;27.90;51.40
7476;DHT22;3779;49.216;8.650;2022-08-02T02:31:59;27.90;51.40
7476;DHT22;3779;49.216;8.650;2022-08-02T02:34:47;27.90;51.30
7476;DHT22;3779;49.216;8.650;2022-08-02T02:37:34;27.90;52.00
7476;DHT22;3779;49.216;8.650;2022-08-02T02:40:23;27.90;51.40
7476;DHT22;3779;49.216;8.650;2022-08-02T02:43:12;27.90;52.00
7476;DHT22;3779;49.216;8.650;2022-08-02T02:46:00;27.90;51.50
7476;DHT22;3779;49.216;8.650;2022-08-02T02:48:51;27.90;51.50
7476;DHT22;3779;49.216;8.650;2022-08-02T02:51:41;27.90;51.50
7476;DHT22;3779;49.216;8.650;2022-08-02T02:54:29;27.90;51.50
7476;DHT22;3779;49.216;8.650;2022-08-02T02:57:15;27.90;51.50
7476;DHT22;3779;49.216;8.650;2022-08-02T03:00:07;27.90;52.20
7476;DHT22;3779;49.216;8.650;2022-08-02T03:02:53;27.90;51.70
7476;DHT22;3779;49.216;8.650;2022-08-02T03:05:39;27.90;51.70
7476;DHT22;3779;49.216;8.650;2022-08-02T03:08:25;27.90;51.70
7476;DHT22;3779;49.216;8.650;2022-08-02T03:11:11;27.90;51.80
7476;DHT22;3779;49.216;8.650;2022-08-02T03:14:01;27.90;51.70
7476;DHT22;3779;49.216;8.650;2022-08-02T03:16:52;27.90;51.80
7476;DHT22;3779;49.216;8.650;2022-08-02T03:19:38;27.90;51.80
7476;DHT22;3779;49.216;8.650;2022-08-02T03:22:24;27.90;51.70
7476;DHT22;3779;49.216;8.650;2022-08-02T03:25:12;27.90;51.60
7476;DHT22;3779;49.216;8.650;2022-08-02T03:27:57;27.90;51.70
7476;DHT22;3779;49.216;8.650;2022-08-02T03:30:43;27.90;51.60
7476;DHT22;3779;49.216;8.650;2022-08-02T03:33:29;27.90;51.60
7476;DHT22;3779;49.216;8.650;2022-08-02T03:36:18;27.90;51.60
7476;DHT22;3779;49.216;8.650;2022-08-02T03:39:06;27.90;51.60
7476;DHT22;3779;49.216;8.650;2022-08-02T03:41:53;27.90;52.20
7476;DHT22;3779;49.216;8.650;2022-08-02T03:44:40;27.90;51.50
7476;DHT22;3779;49.216;8.650;2022-08-02T03:47:27;27.90;52.10
7476;DHT22;3779;49.216;8.650;2022-08-02T03:50:13;28.00;51.50
7476;DHT22;3779;49.216;8.650;2022-08-02T03:53:00;27.80;51.30
7476;DHT22;3779;49.216;8.650;2022-08-02T03:55:46;27.80;51.30
7476;DHT22;3779;49.216;8.650;2022-08-02T03:58:32;27.90;51.20
7476;DHT22;3779;49.216;8.650;2022-08-02T04:01:18;27.90;51.20
7476;DHT22;3779;49.216;8.650;2022-08-02T04:04:05;27.90;51.20
7476;DHT22;3779;49.216;8.650;2022-08-02T04:06:51;27.90;51.20
7476;DHT22;3779;49.216;8.650;2022-08-02T04:09:37;27.80;51.20
7476;DHT22;3779;49.216;8.650;2022-08-02T04:12:23;27.80;51.10
7476;DHT22;3779;49.216;8.650;2022-08-02T04:15:12;27.80;51.10
7476;DHT22;3779;49.216;8.650;2022-08-02T04:18:00;27.80;51.10
7476;DHT22;3779;49.216;8.650;2022-08-02T04:20:48;27.80;51.10
7476;DHT22;3779;49.216;8.650;2022-08-02T04:23:37;27.80;51.10
7476;DHT22;3779;49.216;8.650;2022-08-02T04:26:23;27.80;51.20
7476;DHT22;3779;49.216;8.650;2022-08-02T04:29:10;27.80;51.20
7476;DHT22;3779;49.216;8.650;2022-08-02T04:31:58;27.80;51.20
7476;DHT22;3779;49.216;8.650;2022-08-02T04:34:44;27.80;51.20
7476;DHT22;3779;49.216;8.650;2022-08-02T04:37:30;27.80;51.30
7476;DHT22;3779;49.216;8.650;2022-08-02T04:40:16;27.80;51.30
7476;DHT22;3779;49.216;8.650;2022-08-02T04:43:02;27.80;51.30
7476;DHT22;3779;49.216;8.650;2022-08-02T04:45:50;27.90;51.50
7476;DHT22;3779;49.216;8.650;2022-08-02T04:48:36;27.80;51.50
7476;DHT22;3779;49.216;8.650;2022-08-02T04:51:22;27.80;51.40
7476;DHT22;3779;49.216;8.650;2022-08-02T04:54:09;27.80;51.50
7476;DHT22;3779;49.216;8.650;2022-08-02T04:56:56;27.80;51.70
7476;DHT22;3779;49.216;8.650;2022-08-02T04:59:41;27.80;51.70
7476;DHT22;3779;49.216;8.650;2022-08-02T05:02:27;27.80;51.60
7476;DHT22;3779;49.216;8.650;2022-08-02T05:05:13;27.80;51.40
7476;DHT22;3779;49.216;8.650;2022-08-02T05:08:00;27.80;51.40
7476;DHT22;3779;49.216;8.650;2022-08-02T05:10:46;27.80;51.40
7476;DHT22;3779;49.216;8.650;2022-08-02T05:13:32;27.80;51.30
7476;DHT22;3779;49.216;8.650;2022-08-02T05:16:18;27.80;51.30
7476;DHT22;3779;49.216;8.650;2022-08-02T05:19:03;27.80;51.30
7476;DHT22;3779;49.216;8.650;2022-08-02T05:21:51;27.90;51.50
7476;DHT22;3779;49.216;8.650;2022-08-02T05:24:36;27.80;51.40
7476;DHT22;3779;49.216;8.650;2022-08-02T05:27:22;27.80;51.50
7476;DHT22;3779;49.216;8.650;2022-08-02T05:30:09;27.80;51.70
7476;DHT22;3779;49.216;8.650;2022-08-02T05:32:55;27.80;51.90
7476;DHT22;3779;49.216;8.650;2022-08-02T05:35:40;27.90;51.90
7476;DHT22;3779;49.216;8.650;2022-08-02T05:38:26;27.90;51.90
7476;DHT22;3779;49.216;8.650;2022-08-02T05:41:17;27.90;51.90
7476;DHT22;3779;49.216;8.650;2022-08-02T05:44:03;27.90;51.80
7476;DHT22;3779;49.216;8.650;2022-08-02T05:46:49;27.90;51.70
7476;DHT22;3779;49.216;8.650;2022-08-02T05:49:35;27.90;51.70
7476;DHT22;3779;49.216;8.650;2022-08-02T05:52:24;27.90;51.70
7476;DHT22;3779;49.216;8.650;2022-08-02T05:55:23;28.00;51.90
7476;DHT22;3779;49.216;8.650;2022-08-02T06:01:02;27.90;51.90
7476;DHT22;3779;49.216;8.650;2022-08-02T06:03:52;27.90;52.00
7476;DHT22;3779;49.216;8.650;2022-08-02T06:06:43;27.90;52.10
7476;DHT22;3779;49.216;8.650;2022-08-02T06:09:29;27.90;52.00
7476;DHT22;3779;49.216;8.650;2022-08-02T06:12:16;28.10;52.20
7476;DHT22;3779;49.216;8.650;2022-08-02T06:15:04;28.00;52.60
7476;DHT22;3779;49.216;8.650;2022-08-02T06:17:51;27.90;52.30
7476;DHT22;3779;49.216;8.650;2022-08-02T06:20:37;27.90;52.30
7476;DHT22;3779;49.216;8.650;2022-08-02T06:23:25;27.90;52.20
7476;DHT22;3779;49.216;8.650;2022-08-02T06:26:12;27.90;52.10
7476;DHT22;3779;49.216;8.650;2022-08-02T06:29:00;27.90;52.10
7476;DHT22;3779;49.216;8.650;2022-08-02T06:31:47;28.00;52.20
7476;DHT22;3779;49.216;8.650;2022-08-02T06:34:39;28.00;52.10
7476;DHT22;3779;49.216;8.650;2022-08-02T06:37:43;28.00;52.10
7476;DHT22;3779;49.216;8.650;2022-08-02T06:43:37;28.10;52.30
7476;DHT22;3779;49.216;8.650;2022-08-02T06:46:25;28.10;52.20
7476;DHT22;3779;49.216;8.650;2022-08-02T06:49:11;28.10;52.10
7476;DHT22;3779;49.216;8.650;2022-08-02T06:51:57;28.10;52.80
7476;DHT22;3779;49.216;8.650;2022-08-02T06:54:43;28.10;52.30
7476;DHT22;3779;49.216;8.650;2022-08-02T06:57:30;28.10;52.20
7476;DHT22;3779;49.216;8.650;2022-08-02T07:00:16;28.10;52.20
7476;DHT22;3779;49.216;8.650;2022-08-02T07:03:03;28.10;52.30
7476;DHT22;3779;49.216;8.650;2022-08-02T07:05:49;28.00;52.40
7476;DHT22;3779;49.216;8.650;2022-08-02T07:08:36;28.00;52.30
7476;DHT22;3779;49.216;8.650;2022-08-02T07:11:23;28.00;52.50
7476;DHT22;3779;49.216;8.650;2022-08-02T07:14:09;28.00;52.40
7476;DHT22;3779;49.216;8.650;2022-08-02T07:16:54;28.10;52.40
7476;DHT22;3779;49.216;8.650;2022-08-02T07:19:40;28.10;52.40
7476;DHT22;3779;49.216;8.650;2022-08-02T07:22:27;28.10;52.40
7476;DHT22;3779;49.216;8.650;2022-08-02T07:25:13;28.10;52.40
7476;DHT22;3779;49.216;8.650;2022-08-02T07:27:58;28.10;52.30
7476;DHT22;3779;49.216;8.650;2022-08-02T07:30:44;28.10;52.40
7476;DHT22;3779;49.216;8.650;2022-08-02T07:33:30;28.10;52.40
7476;DHT22;3779;49.216;8.650;2022-08-02T07:36:16;28.10;52.60
7476;DHT22;3779;49.216;8.650;2022-08-02T07:39:02;28.10;52.50
7476;DHT22;3779;49.216;8.650;2022-08-02T07:41:48;28.10;52.50
7476;DHT22;3779;49.216;8.650;2022-08-02T07:44:36;28.10;52.70
7476;DHT22;3779;49.216;8.650;2022-08-02T07:47:22;28.10;52.70
7476;DHT22;3779;49.216;8.650;2022-08-02T07:50:09;28.10;52.40
7476;DHT22;3779;49.216;8.650;2022-08-02T07:52:56;28.10;52.60
7476;DHT22;3779;49.216;8.650;2022-08-02T07:55:42;28.10;52.80
7476;DHT22;3779;49.216;8.650;2022-08-02T07:58:27;28.10;52.70
7476;DHT22;3779;49.216;8.650;2022-08-02T08:01:13;28.20;52.50
7476;DHT22;3779;49.216;8.650;2022-08-02T08:03:59;28.10;52.80
7476;DHT22;3779;49.216;8.650;2022-08-02T08:06:45;28.10;52.60
7476;DHT22;3779;49.216;8.650;2022-08-02T08:09:39;28.10;52.80
7476;DHT22;3779;49.216;8.650;2022-08-02T08:12:28;28.30;53.20
7476;DHT22;3779;49.216;8.650;2022-08-02T08:15:14;28.10;52.50
7476;DHT22;3779;49.216;8.650;2022-08-02T08:18:00;28.10;52.40
7476;DHT22;3779;49.216;8.650;2022-08-02T08:20:46;28.20;52.90
7476;DHT22;3779;49.216;8.650;2022-08-02T08:23:31;28.20;53.10
7476;DHT22;3779;49.216;8.650;2022-08-02T08:26:17;28.20;52.90
7476;DHT22;3779;49.216;8.650;2022-08-02T08:29:03;28.10;53.10
7476;DHT22;3779;49.216;8.650;2022-08-02T08:31:51;28.20;53.40
7476;DHT22;3779;49.216;8.650;2022-08-02T08:34:36;28.20;53.10
7476;DHT22;3779;49.216;8.650;2022-08-02T08:37:22;28.20;52.70
7476;DHT22;3779;49.216;8.650;2022-08-02T08:40:10;28.20;52.80
7476;DHT22;3779;49.216;8.650;2022-08-02T08:42:56;28.20;53.20
7476;DHT22;3779;49.216;8.650;2022-08-02T08:45:44;28.10;53.10
7476;DHT22;3779;49.216;8.650;2022-08-02T08:48:32;28.20;53.10
7476;DHT22;3779;49.216;8.650;2022-08-02T08:51:23;28.20;53.80
7476;DHT22;3779;49.216;8.650;2022-08-02T08:54:14;28.20;54.00
7476;DHT22;3779;49.216;8.650;2022-08-02T08:57:03;28.30;54.20
7476;DHT22;3779;49.216;8.650;2022-08-02T08:59:49;28.30;53.20
7476;DHT22;3779;49.216;8.650;2022-08-02T09:02:36;28.30;53.40
7476;DHT22;3779;49.216;8.650;2022-08-02T09:05:22;28.20;52.70
7476;DHT22;3779;49.216;8.650;2022-08-02T09:08:08;28.20;52.80
7476;DHT22;3779;49.216;8.650;2022-08-02T09:10:56;28.20;53.20
7476;DHT22;3779;49.216;8.650;2022-08-02T09:13:54;28.20;52.50
7476;DHT22;3779;49.216;8.650;2022-08-02T09:16:42;28.10;52.30
7476;DHT22;3779;49.216;8.650;2022-08-02T09:19:28;28.20;52.40
7476;DHT22;3779;49.216;8.650;2022-08-02T09:22:14;28.30;52.30
7476;DHT22;3779;49.216;8.650;2022-08-02T09:25:00;28.30;52.60
7476;DHT22;3779;49.216;8.650;2022-08-02T09:27:47;28.10;52.30
7476;DHT22;3779;49.216;8.650;2022-08-02T09:30:41;28.10;53.10
7476;DHT22;3779;49.216;8.650;2022-08-02T09:33:27;28.30;52.70
7476;DHT22;3779;49.216;8.650;2022-08-02T09:36:15;28.20;52.40
7476;DHT22;3779;49.216;8.650;2022-08-02T09:39:04;28.00;52.70
7476;DHT22;3779;49.216;8.650;2022-08-02T09:41:50;28.10;52.60
7476;DHT22;3779;49.216;8.650;2022-08-02T09:44:35;28.10;52.50
7476;DHT22;3779;49.216;8.650;2022-08-02T09:47:26;28.20;52.40
7476;DHT22;3779;49.216;8.650;2022-08-02T09:50:12;28.20;52.40
7476;DHT22;3779;49.216;8.650;2022-08-02T09:52:58;28.20;52.20
7476;DHT22;3779;49.216;8.650;2022-08-02T09:55:54;28.20;52.50
7476;DHT22;3779;49.216;8.650;2022-08-02T09:58:40;28.20;52.70
7476;DHT22;3779;49.216;8.650;2022-08-02T10:01:30;28.20;51.60
7476;DHT22;3779;49.216;8.650;2022-08-02T10:04:22;28.20;52.20
7476;DHT22;3779;49.216;8.650;2022-08-02T10:07:08;28.10;52.50
7476;DHT22;3779;49.216;8.650;2022-08-02T10:09:55;28.20;52.90
7476;DHT22;3779;49.216;8.650;2022-08-02T10:12:41;28.30;52.70
7476;DHT22;3779;49.216;8.650;2022-08-02T10:15:26;28.10;52.70
7476;DHT22;3779;49.216;8.650;2022-08-02T10:18:12;27.90;53.10
7476;DHT22;3779;49.216;8.650;2022-08-02T10:21:00;28.00;52.80
7476;DHT22;3779;49.216;8.650;2022-08-02T10:23:48;28.10;52.80
7476;DHT22;3779;49.216;8.650;2022-08-02T10:26:35;28.30;52.40
7476;DHT22;3779;49.216;8.650;2022-08-02T10:29:36;28.30;52.10
7476;DHT22;3779;49.216;8.650;2022-08-02T10:32:30;28.20;52.50
7476;DHT22;3779;49.216;8.650;2022-08-02T10:35:21;28.30;51.40
7476;DHT22;3779;49.216;8.650;2022-08-02T10:38:10;28.30;51.80
7476;DHT22;3779;49.216;8.650;2022-08-02T10:40:56;28.30;51.80
7476;DHT22;3779;49.216;8.650;2022-08-02T10:43:43;28.30;51.90
7476;DHT22;3779;49.216;8.650;2022-08-02T10:46:31;28.20;52.20
7476;DHT22;3779;49.216;8.650;2022-08-02T10:49:18;28.30;52.50
7476;DHT22;3779;49.216;8.650;2022-08-02T10:52:06;28.20;52.50
7476;DHT22;3779;49.216;8.650;2022-08-02T10:55:11;28.10;52.80
7476;DHT22;3779;49.216;8.650;2022-08-02T10:58:16;28.10;53.10
7476;DHT22;3779;49.216;8.650;2022-08-02T11:01:05;28.20;52.30
7476;DHT22;3779;49.216;8.650;2022-08-02T11:03:56;28.40;51.00
7476;DHT22;3779;49.216;8.650;2022-08-02T11:09:54;28.20;52.20
7476;DHT22;3779;49.216;8.650;2022-08-02T11:16:03;28.30;51.90
7476;DHT22;3779;49.216;8.650;2022-08-02T11:21:35;28.20;52.50
7476;DHT22;3779;49.216;8.650;2022-08-02T11:27:18;28.30;52.80
7476;DHT22;3779;49.216;8.650;2022-08-02T11:30:11;28.20;52.50
7476;DHT22;3779;49.216;8.650;2022-08-02T11:32:59;28.20;52.60
7476;DHT22;3779;49.216;8.650;2022-08-02T11:35:45;28.20;52.60
7476;DHT22;3779;49.216;8.650;2022-08-02T11:38:31;28.20;52.40
7476;DHT22;3779;49.216;8.650;2022-08-02T11:41:18;28.20;52.60
7476;DHT22;3779;49.216;8.650;2022-08-02T11:44:04;28.30;52.50
7476;DHT22;3779;49.216;8.650;2022-08-02T11:46:55;28.40;51.30
7476;DHT22;3779;49.216;8.650;2022-08-02T11:49:41;28.40;51.40
7476;DHT22;3779;49.216;8.650;2022-08-02T11:52:33;28.40;51.60
7476;DHT22;3779;49.216;8.650;2022-08-02T11:55:26;28.40;51.60
7476;DHT22;3779;49.216;8.650;2022-08-02T11:58:12;28.20;52.20
7476;DHT22;3779;49.216;8.650;2022-08-02T12:00:58;28.20;51.20
7476;DHT22;3779;49.216;8.650;2022-08-02T12:03:44;28.20;51.90
7476;DHT22;3779;49.216;8.650;2022-08-02T12:06:31;28.20;52.10
7476;DHT22;3779;49.216;8.650;2022-08-02T12:09:17;28.20;52.60
7476;DHT22;3779;49.216;8.650;2022-08-02T12:12:03;28.20;52.40
7476;DHT22;3779;49.216;8.650;2022-08-02T12:14:49;28.40;52.70
7476;DHT22;3779;49.216;8.650;2022-08-02T12:17:36;28.40;52.10
7476;DHT22;3779;49.216;8.650;2022-08-02T12:20:41;28.40;51.80
7476;DHT22;3779;49.216;8.650;2022-08-02T12:23:27;28.40;51.50
7476;DHT22;3779;49.216;8.650;2022-08-02T12:26:13;28.40;50.60
7476;DHT22;3779;49.216;8.650;2022-08-02T12:28:59;28.40;48.70
7476;DHT22;3779;49.216;8.650;2022-08-02T12:31:46;28.40;50.60
7476;DHT22;3779;49.216;8.650;2022-08-02T12:34:33;28.30;51.20
7476;DHT22;3779;49.216;8.650;2022-08-02T12:37:24;28.30;51.60
7476;DHT22;3779;49.216;8.650;2022-08-02T12:40:25;28.20;52.10
7476;DHT22;3779;49.216;8.650;2022-08-02T12:43:23;28.30;51.90
7476;DHT22;3779;49.216;8.650;2022-08-02T12:46:18;28.30;52.00
7476;DHT22;3779;49.216;8.650;2022-08-02T12:49:16;28.20;52.20
7476;DHT22;3779;49.216;8.650;2022-08-02T12:52:20;28.20;52.50
7476;DHT22;3779;49.216;8.650;2022-08-02T12:55:24;28.10;52.90
7476;DHT22;3779;49.216;8.650;2022-08-02T12:58:13;28.20;52.40
7476;DHT22;3779;49.216;8.650;2022-08-02T13:01:00;28.30;52.30
7476;DHT22;3779;49.216;8.650;2022-08-02T13:03:46;28.30;52.40
7476;DHT22;3779;49.216;8.650;2022-08-02T13:06:32;28.30;52.70
7476;DHT22;3779;49.216;8.650;2022-08-02T13:09:18;28.50;52.60
7476;DHT22;3779;49.216;8.650;2022-08-02T13:12:05;28.40;52.40
7476;DHT22;3779;49.216;8.650;2022-08-02T13:14:51;28.30;52.20
7476;DHT22;3779;49.216;8.650;2022-08-02T13:17:37;28.20;52.10
7476;DHT22;3779;49.216;8.650;2022-08-02T13:20:27;28.10;52.60
7476;DHT22;3779;49.216;8.650;2022-08-02T13:23:13;27.90;52.90
7476;DHT22;3779;49.216;8.650;2022-08-02T13:26:00;28.00;52.40
7476;DHT22;3779;49.216;8.650;2022-08-02T13:28:46;28.10;52.70
7476;DHT22;3779;49.216;8.650;2022-08-02T13:31:32;28.10;52.70
7476;DHT22;3779;49.216;8.650;2022-08-02T13:34:21;28.20;53.00
7476;DHT22;3779;49.216;8.650;2022-08-02T13:37:07;28.30;52.50
7476;DHT22;3779;49.216;8.650;2022-08-02T13:39:53;28.30;52.50
7476;DHT22;3779;49.216;8.650;2022-08-02T13:42:39;28.40;52.60
7476;DHT22;3779;49.216;8.650;2022-08-02T13:45:25;28.40;52.30
7476;DHT22;3779;49.216;8.650;2022-08-02T13:48:10;28.40;52.20
7476;DHT22;3779;49.216;8.650;2022-08-02T13:50:56;28.50;52.00
7476;DHT22;3779;49.216;8.650;2022-08-02T13:53:42;28.40;51.80
7476;DHT22;3779;49.216;8.650;2022-08-02T13:56:28;28.40;52.30
7476;DHT22;3779;49.216;8.650;2022-08-02T13:59:13;28.40;52.30
7476;DHT22;3779;49.216;8.650;2022-08-02T14:01:59;28.40;52.40
7476;DHT22;3779;49.216;8.650;2022-08-02T14:04:47;28.40;52.10
7476;DHT22;3779;49.216;8.650;2022-08-02T14:07:33;28.40;52.00
7476;DHT22;3779;49.216;8.650;2022-08-02T14:10:18;28.30;52.20
7476;DHT22;3779;49.216;8.650;2022-08-02T14:13:05;28.30;52.40
7476;DHT22;3779;49.216;8.650;2022-08-02T14:15:51;28.30;52.50
7476;DHT22;3779;49.216;8.650;2022-08-02T14:18:37;28.50;52.50
7476;DHT22;3779;49.216;8.650;2022-08-02T14:21:23;28.40;52.70
7476;DHT22;3779;49.216;8.650;2022-08-02T14:24:09;28.40;50.80
7476;DHT22;3779;49.216;8.650;2022-08-02T14:26:54;28.40;51.60
7476;DHT22;3779;49.216;8.650;2022-08-02T14:29:41;28.40;51.80
7476;DHT22;3779;49.216;8.650;2022-08-02T14:32:26;28.40;52.40
7476;DHT22;3779;49.216;8.650;2022-08-02T14:35:12;28.30;52.80
7476;DHT22;3779;49.216;8.650;2022-08-02T14:37:58;28.30;52.80
7476;DHT22;3779;49.216;8.650;2022-08-02T14:40:45;28.30;53.00
7476;DHT22;3779;49.216;8.650;2022-08-02T14:43:31;28.30;52.70
7476;DHT22;3779;49.216;8.650;2022-08-02T14:46:38;28.30;53.20
7476;DHT22;3779;49.216;8.650;2022-08-02T14:49:27;28.40;53.10
7476;DHT22;3779;49.216;8.650;2022-08-02T14:52:13;28.40;52.60
7476;DHT22;3779;49.216;8.650;2022-08-02T14:54:59;28.30;52.60
7476;DHT22;3779;49.216;8.650;2022-08-02T14:57:45;28.30;52.90
7476;DHT22;3779;49.216;8.650;2022-08-02T15:00:31;28.40;53.00
7476;DHT22;3779;49.216;8.650;2022-08-02T15:03:16;28.40;52.70
7476;DHT22;3779;49.216;8.650;2022-08-02T15:06:03;28.30;52.30
7476;DHT22;3779;49.216;8.650;2022-08-02T15:08:49;28.40;52.20
7476;DHT22;3779;49.216;8.650;2022-08-02T15:11:35;28.40;48.70
7476;DHT22;3779;49.216;8.650;2022-08-02T15:14:22;28.40;50.40
7476;DHT22;3779;49.216;8.650;2022-08-02T15:17:09;28.40;50.50
7476;DHT22;3779;49.216;8.650;2022-08-02T15:19:55;28.40;51.00
7476;DHT22;3779;49.216;8.650;2022-08-02T15:22:40;28.40;51.00
7476;DHT22;3779;49.216;8.650;2022-08-02T15:25:26;28.40;51.60
7476;DHT22;3779;49.216;8.650;2022-08-02T15:28:12;28.40;52.30
7476;DHT22;3779;49.216;8.650;2022-08-02T15:30:58;28.40;51.80
7476;DHT22;3779;49.216;8.650;2022-08-02T15:33:44;28.40;52.30
7476;DHT22;3779;49.216;8.650;2022-08-02T15:36:30;28.30;52.90
7476;DHT22;3779;49.216;8.650;2022-08-02T15:39:15;28.30;52.90
7476;DHT22;3779;49.216;8.650;2022-08-02T15:42:01;28.40;53.40
7476;DHT22;3779;49.216;8.650;2022-08-02T15:44:47;28.30;53.10
7476;DHT22;3779;49.216;8.650;2022-08-02T15:47:33;28.30;53.00
7476;DHT22;3779;49.216;8.650;2022-08-02T15:50:19;28.40;52.90
7476;DHT22;3779;49.216;8.650;2022-08-02T15:53:05;28.30;53.10
7476;DHT22;3779;49.216;8.650;2022-08-02T15:55:51;28.30;53.10
7476;DHT22;3779;49.216;8.650;2022-08-02T15:58:38;28.30;53.10
7476;DHT22;3779;49.216;8.650;2022-08-02T16:01:24;28.30;53.10
7476;DHT22;3779;49.216;8.650;2022-08-02T16:04:10;28.30;53.10
7476;DHT22;3779;49.216;8.650;2022-08-02T16:06:55;28.30;53.20
7476;DHT22;3779;49.216;8.650;2022-08-02T16:09:41;28.20;53.40
7476;DHT22;3779;49.216;8.650;2022-08-02T16:12:29;28.30;53.20
7476;DHT22;3779;49.216;8.650;2022-08-02T16:15:16;28.40;53.00
7476;DHT22;3779;49.216;8.650;2022-08-02T16:18:02;28.40;52.50
7476;DHT22;3779;49.216;8.650;2022-08-02T16:20:48;28.50;49.20
7476;DHT22;3779;49.216;8.650;2022-08-02T16:23:34;28.40;51.00
7476;DHT22;3779;49.216;8.650;2022-08-02T16:26:19;28.30;52.80
7476;DHT22;3779;49.216;8.650;2022-08-02T16:29:05;28.30;52.70
7476;DHT22;3779;49.216;8.650;2022-08-02T16:31:54;28.30;52.10
7476;DHT22;3779;49.216;8.650;2022-08-02T16:34:39;28.40;51.90
7476;DHT22;3779;49.216;8.650;2022-08-02T16:37:25;28.40;51.50
7476;DHT22;3779;49.216;8.650;2022-08-02T16:40:11;28.50;51.10
7476;DHT22;3779;49.216;8.650;2022-08-02T16:42:57;28.40;51.10
7476;DHT22;3779;49.216;8.650;2022-08-02T16:45:43;28.40;51.40
7476;DHT22;3779;49.216;8.650;2022-08-02T16:48:29;28.50;50.20
7476;DHT22;3779;49.216;8.650;2022-08-02T16:51:15;28.50;49.70
7476;DHT22;3779;49.216;8.650;2022-08-02T16:54:01;28.50;49.70
7476;DHT22;3779;49.216;8.650;2022-08-02T16:56:46;28.40;50.20
7476;DHT22;3779;49.216;8.650;2022-08-02T16:59:33;28.50;49.60
7476;DHT22;3779;49.216;8.650;2022-08-02T17:02:20;28.50;49.90
7476;DHT22;3779;49.216;8.650;2022-08-02T17:05:07;28.50;49.80
7476;DHT22;3779;49.216;8.650;2022-08-02T17:07:53;28.50;50.00
7476;DHT22;3779;49.216;8.650;2022-08-02T17:10:38;28.50;49.40
7476;DHT22;3779;49.216;8.650;2022-08-02T17:13:24;28.50;48.90
7476;DHT22;3779;49.216;8.650;2022-08-02T17:16:10;28.50;48.90
7476;DHT22;3779;49.216;8.650;2022-08-02T17:18:56;28.50;48.40
7476;DHT22;3779;49.216;8.650;2022-08-02T17:21:44;28.50;48.50
7476;DHT22;3779;49.216;8.650;2022-08-02T17:24:30;28.50;48.60
7476;DHT22;3779;49.216;8.650;2022-08-02T17:27:16;28.50;48.50
7476;DHT22;3779;49.216;8.650;2022-08-02T17:30:02;28.50;48.60
7476;DHT22;3779;49.216;8.650;2022-08-02T17:32:48;28.50;48.50
7476;DHT22;3779;49.216;8.650;2022-08-02T17:35:34;28.50;48.60
7476;DHT22;3779;49.216;8.650;2022-08-02T17:38:20;28.50;48.60
7476;DHT22;3779;49.216;8.650;2022-08-02T17:41:06;28.40;49.00
7476;DHT22;3779;49.216;8.650;2022-08-02T17:43:52;28.50;48.50
7476;DHT22;3779;49.216;8.650;2022-08-02T17:46:38;28.50;48.30
7476;DHT22;3779;49.216;8.650;2022-08-02T17:49:24;28.50;48.30
7476;DHT22;3779;49.216;8.650;2022-08-02T17:52:10;28.40;48.90
7476;DHT22;3779;49.216;8.650;2022-08-02T17:54:56;28.50;48.60
7476;DHT22;3779;49.216;8.650;2022-08-02T17:57:42;28.50;48.70
7476;DHT22;3779;49.216;8.650;2022-08-02T18:00:32;28.50;49.00
7476;DHT22;3779;49.216;8.650;2022-08-02T18:03:18;28.50;49.50
7476;DHT22;3779;49.216;8.650;2022-08-02T18:06:05;28.50;49.30
7476;DHT22;3779;49.216;8.650;2022-08-02T18:08:51;28.40;49.80
7476;DHT22;3779;49.216;8.650;2022-08-02T18:11:37;28.50;49.90
7476;DHT22;3779;49.216;8.650;2022-08-02T18:14:23;28.50;49.80
7476;DHT22;3779;49.216;8.650;2022-08-02T18:17:09;28.50;49.80
7476;DHT22;3779;49.216;8.650;2022-08-02T18:19:55;28.50;49.70
7476;DHT22;3779;49.216;8.650;2022-08-02T18:22:41;28.50;49.50
7476;DHT22;3779;49.216;8.650;2022-08-02T18:25:27;28.50;49.30
7476;DHT22;3779;49.216;8.650;2022-08-02T18:28:13;28.50;49.20
7476;DHT22;3779;49.216;8.650;2022-08-02T18:30:59;28.50;49.00
7476;DHT22;3779;49.216;8.650;2022-08-02T18:33:45;28.50;48.70
7476;DHT22;3779;49.216;8.650;2022-08-02T18:36:31;28.50;48.50
7476;DHT22;3779;49.216;8.650;2022-08-02T18:39:17;28.50;48.30